Portland, Oregon
Current Conditions -  °F | °C
As of 8:53 AM on Wednesday 22 Oct 2014 (Local Time) from KPDX Reporting Station
Light Rain Light Rain  
Wind Chill: 58°   Ceiling: 4900
Heat Index: 58°   Visibility: 10mi
Dew Point: 54°   Wind: 10mph
Humidity: 87%   Direction: 140°SE
Pressure: 29.79"   Gusts: NA
Location:  45.51°N, 122.67°W
Report Text: KPDX 221553Z 14009KT 10SM -RA FEW020 BKN049 OVC085 14/12 A2979 RMK AO2 SLP086 P0002 T01440122
Loading
Personal Weather Stations






























Interactive Weather Map
Tropical Storm Tracking
New forecast layout! Learn more

10-Day Weather Forecast

Advertisements
Track Severe Weather on mobile